Conroe, TX

1:13 AM CDT on July 03, 2015 (GMT -0500)
Briar Grove | | Change Station
CLOSE
Current Station
Personal Weather Station
Location: Conroe, TX
Elevation: 226 ft
Nearby Weather Stations

Elev 226 ft 30.34 °N, 95.44 °W | Updated 26 seconds ago

Clear
Clear
76.5 °F
Feels Like 77 °F
N
0.0
Wind Variable Wind from SE
Gusts 0.0 mph

Today
High -- | Low -- °F
--% Chance of Precip.
Yesterday
High -- | Low -- °F
Precip. -- in
6:24 AM 8:27 PM
Full, 98% visible
Pressure 30.00 in
Visibility 8.0 miles
Clouds Clear
Heat Index 77 °F
Dew Point 75 °F
Humidity 94%
Rainfall 0.00 in
Snow Depth Not available.
UV 0.0 out of 12
Pollen 3.70 out of 12
Air Quality Not available.
Flu Activity Not available.
METAR KCXO 030553Z AUTO 00000KT 8SM CLR 24/22 A3001 RMK AO2 SLP158 T02440222 10311 20239 403330200 51016

More Conditions Fewer Conditions

Pressure 30.00 in
Visibility 8.0 miles
Clouds Clear
Heat Index 77 °F
Dew Point 75 °F
Humidity 94%
Rainfall 0.00 in
Snow Depth Not available.
UV 0.0 out of 12
Pollen 3.70 out of 12
Air Quality Not available.
Flu Activity Not available.
METAR KCXO 030553Z AUTO 00000KT 8SM CLR 24/22 A3001 RMK AO2 SLP158 T02440222 10311 20239 403330200 51016

More Conditions Fewer Conditions

10-Day Weather Forecast

×

Almanac

Astronomy

Jul. 03, 2015 Rise Set
Actual Time
Civil Twilight
Nautical Twilight
Astronomical Twilight
Moon
Length of Visible Light
Length of Day
Tomorrow will be .
, % of the Moon is Illuminated

Today's Extremes

State Highs State Lows

Community

WunderPhotos

Upload Photos

1,834,634 photos uploaded!

WunderBlogs® & News

Nearby

Air Quality

  Air Quality AQ Index Pollutant
Not available.

Snow Depth

Station Depth Elevation

Earthquake Activity

City Distance Mag. Time & Date
Minimum magnitude displayed is 2.5.

Coastal Water Temperatures

Place Temperature

Stations

Nearby Weather Stations

Station Location Temp. Windchill Dew Point Humidity Wind Precip. Elev Updated Type